»·PEaware :: N92131 KSNA-KBUR

N92131 :: KSNA-KBUR

FLIGHT INFORMATION

Flight Status: Arrived
Operator: Privately registered:
United States
More flights under this callsign
Pilot: Manhattan Flying Club (7137)
Aircraft: CESSNA 172 SKYHAWK
(C172)
More flights by this aircraft type
Origin: KSNA John Wayne-Orange Co
United States
Destination: KBUR Bob Hope-Burbank
United States
More flights between these airports :: More routes between these airports
Route: +SLI POPPR SMO125R SMO SMO311R SILEX
File this flight plan on PilotEdge
Remarks: ILS RWY8
Altitude:
(Current/Filed)
4,000ft
Speed:
(Current/Filed)
110kts
Departed: 08-Jan-18 03:03 PM
Arrived: 08-Jan-18 03:42 PM
Distance/Time
Traveled:
40nm/0:39
Distance/Time
To Go:
Arrived

Flight Plot

Page will automatically refresh every two minutes.


Map Options




Map Legend


Flown Route
Filed Route
Departure Airport
Arrival Airport
Navaid (VOR, NDB)
Fix

Horizontal Profiles

Position Reports

Time Latitude Longitude Heading Altitude Ground
Speed
08-Jan-18 14:50 33.666364 -117.873030 349 59ft 0kts
08-Jan-18 14:51 33.666364 -117.873030 349 59ft 0kts
08-Jan-18 14:52 33.666364 -117.873030 349 59ft 0kts
08-Jan-18 14:53 33.666364 -117.873030 349 59ft 0kts
08-Jan-18 14:54 33.666364 -117.873030 349 59ft 0kts
08-Jan-18 14:55 33.666364 -117.873030 349 59ft 0kts
08-Jan-18 14:56 33.666364 -117.873030 349 59ft 0kts
08-Jan-18 14:57 33.666364 -117.873030 349 59ft 0kts
08-Jan-18 14:58 33.666364 -117.873030 349 59ft 0kts
08-Jan-18 14:59 33.666364 -117.873030 349 59ft 0kts
08-Jan-18 15:00 33.666364 -117.873030 349 59ft 0kts
08-Jan-18 15:01 33.666364 -117.873030 349 59ft 0kts
08-Jan-18 15:02 33.666364 -117.873030 349 59ft 0kts
08-Jan-18 15:03 33.666364 -117.873030 349 59ft 0kts
08-Jan-18 15:04 33.669673 -117.870382 40 59ft 36kts
08-Jan-18 15:05 33.676442 -117.865602 28 59ft 18kts
08-Jan-18 15:06 33.679734 -117.863523 19 59ft 10kts
08-Jan-18 15:07 33.679982 -117.863607 301 59ft 0kts
08-Jan-18 15:08 33.679982 -117.863607 301 59ft 0kts
08-Jan-18 15:09 33.677865 -117.865605 207 59ft 60kts
08-Jan-18 15:10 33.660620 -117.876502 210 1062ft 72kts
08-Jan-18 15:11 33.648120 -117.889900 229 1889ft 76kts
08-Jan-18 15:12 33.646143 -117.924673 309 1875ft 114kts
08-Jan-18 15:13 33.658015 -117.945007 300 1879ft 68kts
08-Jan-18 15:14 33.662262 -117.973585 296 2731ft 82kts
08-Jan-18 15:15 33.669282 -117.994377 301 3460ft 92kts
08-Jan-18 15:16 33.697805 -118.008782 344 4066ft 108kts
08-Jan-18 15:17 33.720137 -118.021363 325 4113ft 109kts
08-Jan-18 15:18 33.748991 -118.036583 346 3998ft 116kts
08-Jan-18 15:19 33.779773 -118.045596 320 3967ft 110kts
08-Jan-18 15:20 33.791945 -118.079057 300 3988ft 112kts
08-Jan-18 15:21 33.798267 -118.115095 291 4053ft 110kts
08-Jan-18 15:22 33.811005 -118.149862 307 3990ft 113kts
08-Jan-18 15:23 33.821393 -118.184938 287 3959ft 114kts
08-Jan-18 15:24 33.831795 -118.220694 287 3931ft 114kts
08-Jan-18 15:25 33.839582 -118.256892 281 3893ft 113kts
08-Jan-18 15:26 33.853341 -118.289037 275 3883ft 112kts
08-Jan-18 15:27 33.870628 -118.317412 319 3940ft 108kts
08-Jan-18 15:28 33.892610 -118.341750 313 4083ft 107kts
08-Jan-18 15:29 33.915811 -118.364395 326 4211ft 107kts
08-Jan-18 15:30 33.940783 -118.385330 322 4223ft 115kts
08-Jan-18 15:31 33.965518 -118.411187 322 4112ft 111kts
08-Jan-18 15:32 33.991206 -118.434342 335 3988ft 115kts
08-Jan-18 15:33 34.014458 -118.459800 326 3971ft 113kts
08-Jan-18 15:34 34.041190 -118.480387 329 3963ft 111kts
08-Jan-18 15:35 34.066361 -118.502466 319 3985ft 112kts
08-Jan-18 15:36 34.092179 -118.523457 329 4013ft 112kts
08-Jan-18 15:37 34.118411 -118.543782 322 4034ft 112kts
08-Jan-18 15:38 34.142444 -118.567588 323 4053ft 113kts
08-Jan-18 15:39 34.166095 -118.592410 322 4089ft 110kts
08-Jan-18 15:40 34.194088 -118.616636 327 3167ft 134kts
08-Jan-18 15:41 34.206516 -118.598450 104 3007ft 118kts
08-Jan-18 15:42 34.200255 -118.560374 91 3001ft 114kts
08-Jan-18 15:43 34.200279 -118.522043 89 2984ft 111kts
08-Jan-18 15:44 34.198588 -118.482328 96 2566ft 130kts
08-Jan-18 15:45 34.199412 -118.443121 78 1919ft 111kts
08-Jan-18 15:46 34.198566 -118.412792 92 1495ft 93kts
08-Jan-18 15:47 34.198073 -118.385021 88 1052ft 69kts
08-Jan-18 15:48 34.197837 -118.365156 91 780ft 22kts
08-Jan-18 15:49 34.197895 -118.360549 60 780ft 8kts
08-Jan-18 15:50 34.198484 -118.360378 351 780ft 0kts
08-Jan-18 15:51 34.198931 -118.361380 278 780ft 17kts
08-Jan-18 15:52 34.199916 -118.363608 353 780ft 0kts
08-Jan-18 15:53 34.199916 -118.363608 353 780ft 0kts
08-Jan-18 15:54 34.199916 -118.363608 353 780ft 0kts
08-Jan-18 15:55 34.199916 -118.363608 353 780ft 0kts
08-Jan-18 15:56 34.199916 -118.363608 353 780ft 0kts

Navigation Log

Ident Type
1. KSNA Airport
2. SLI Navaid
3. POPPR Fix
4. SMO Navaid
5. SILEX Fix
6. KBUR Airport